sensor_id;sensor_type;location;lat;lon;timestamp;pressure;altitude;pressure_sealevel;temperature;humidity
78014;BME280;67222;50.182;8.734;2023-08-21T04:30:23;101046.25;;;20.44;86.93
78014;BME280;67222;50.182;8.734;2023-08-21T04:32:48;101047.34;;;20.43;86.88
78014;BME280;67222;50.182;8.734;2023-08-21T04:35:14;101054.16;;;20.46;86.69
78014;BME280;67222;50.182;8.734;2023-08-21T04:37:43;101050.78;;;20.39;86.41
78014;BME280;67222;50.182;8.734;2023-08-21T04:40:10;101051.59;;;20.39;87.90
78014;BME280;67222;50.182;8.734;2023-08-21T04:42:35;101061.34;;;20.40;87.41
78014;BME280;67222;50.182;8.734;2023-08-21T04:45:01;101053.19;;;20.35;86.54
78014;BME280;67222;50.182;8.734;2023-08-21T04:47:27;101056.19;;;20.39;87.03
78014;BME280;67222;50.182;8.734;2023-08-21T04:49:54;101057.25;;;20.38;87.33
78014;BME280;67222;50.182;8.734;2023-08-21T04:52:22;101058.91;;;20.39;88.19
78014;BME280;67222;50.182;8.734;2023-08-21T04:54:48;101057.78;;;20.35;86.44
78014;BME280;67222;50.182;8.734;2023-08-21T04:57:14;101061.94;;;20.42;87.26
78014;BME280;67222;50.182;8.734;2023-08-21T04:59:40;101055.63;;;20.37;87.68
78014;BME280;67222;50.182;8.734;2023-08-21T05:02:05;101065.66;;;20.36;86.54
78014;BME280;67222;50.182;8.734;2023-08-21T05:04:30;101069.25;;;20.42;87.14
78014;BME280;67222;50.182;8.734;2023-08-21T05:06:56;101063.84;;;20.42;87.43
78014;BME280;67222;50.182;8.734;2023-08-21T05:09:21;101067.38;;;20.42;87.18
78014;BME280;67222;50.182;8.734;2023-08-21T05:11:46;101064.75;;;20.47;86.71
78014;BME280;67222;50.182;8.734;2023-08-21T05:14:12;101071.59;;;20.55;87.33
78014;BME280;67222;50.182;8.734;2023-08-21T05:16:37;101070.25;;;20.58;86.95
78014;BME280;67222;50.182;8.734;2023-08-21T05:19:02;101078.13;;;20.59;86.64
78014;BME280;67222;50.182;8.734;2023-08-21T05:21:28;101072.97;;;20.58;86.98
78014;BME280;67222;50.182;8.734;2023-08-21T05:23:53;101073.00;;;20.63;86.48
78014;BME280;67222;50.182;8.734;2023-08-21T05:26:19;101075.38;;;20.54;87.04
78014;BME280;67222;50.182;8.734;2023-08-21T05:28:45;101076.75;;;20.56;87.16
78014;BME280;67222;50.182;8.734;2023-08-21T05:31:10;101072.72;;;20.59;87.52
78014;BME280;67222;50.182;8.734;2023-08-21T05:33:35;101078.78;;;20.66;87.24
78014;BME280;67222;50.182;8.734;2023-08-21T05:36:00;101081.78;;;20.70;87.46
78014;BME280;67222;50.182;8.734;2023-08-21T05:38:26;101085.63;;;20.74;87.14
78014;BME280;67222;50.182;8.734;2023-08-21T05:40:51;101083.16;;;20.72;87.54
78014;BME280;67222;50.182;8.734;2023-08-21T05:43:16;101085.63;;;20.74;87.66
78014;BME280;67222;50.182;8.734;2023-08-21T05:45:42;101085.09;;;20.77;87.93
78014;BME280;67222;50.182;8.734;2023-08-21T05:48:08;101096.00;;;20.82;87.64
78014;BME280;67222;50.182;8.734;2023-08-21T05:50:33;101095.75;;;20.83;88.28
78014;BME280;67222;50.182;8.734;2023-08-21T05:52:58;101093.28;;;20.82;86.83
78014;BME280;67222;50.182;8.734;2023-08-21T05:55:26;101096.38;;;20.91;86.50
78014;BME280;67222;50.182;8.734;2023-08-21T05:57:52;101105.47;;;21.06;87.57
78014;BME280;67222;50.182;8.734;2023-08-21T06:00:17;101095.69;;;21.05;86.46
78014;BME280;67222;50.182;8.734;2023-08-21T06:02:43;101093.31;;;21.14;86.40
78014;BME280;67222;50.182;8.734;2023-08-21T06:05:08;101095.84;;;21.21;85.63
78014;BME280;67222;50.182;8.734;2023-08-21T06:07:34;101087.78;;;21.26;86.47
78014;BME280;67222;50.182;8.734;2023-08-21T06:09:59;101099.75;;;21.30;84.12
78014;BME280;67222;50.182;8.734;2023-08-21T06:12:24;101100.84;;;21.34;85.32
78014;BME280;67222;50.182;8.734;2023-08-21T06:14:50;101102.84;;;21.43;85.62
78014;BME280;67222;50.182;8.734;2023-08-21T06:17:15;101100.41;;;21.42;85.49
78014;BME280;67222;50.182;8.734;2023-08-21T06:19:41;101095.53;;;21.44;86.18
78014;BME280;67222;50.182;8.734;2023-08-21T06:22:07;101104.22;;;21.46;86.20
78014;BME280;67222;50.182;8.734;2023-08-21T06:24:32;101098.78;;;21.46;85.34
78014;BME280;67222;50.182;8.734;2023-08-21T06:26:58;101102.88;;;21.49;85.07
78014;BME280;67222;50.182;8.734;2023-08-21T06:29:24;101101.00;;;21.54;84.63
78014;BME280;67222;50.182;8.734;2023-08-21T06:31:49;101101.00;;;21.54;85.14
78014;BME280;67222;50.182;8.734;2023-08-21T06:34:15;101091.78;;;21.55;85.63
78014;BME280;67222;50.182;8.734;2023-08-21T06:36:40;101099.66;;;21.57;85.03
78014;BME280;67222;50.182;8.734;2023-08-21T06:39:05;101097.47;;;21.54;84.38
78014;BME280;67222;50.182;8.734;2023-08-21T06:41:31;101096.41;;;21.55;84.58
78014;BME280;67222;50.182;8.734;2023-08-21T06:43:57;101108.13;;;21.60;85.00
78014;BME280;67222;50.182;8.734;2023-08-21T06:46:23;101103.81;;;21.64;85.22
78014;BME280;67222;50.182;8.734;2023-08-21T06:48:48;101104.94;;;21.68;85.20
78014;BME280;67222;50.182;8.734;2023-08-21T06:51:15;101112.53;;;21.71;85.01
78014;BME280;67222;50.182;8.734;2023-08-21T06:53:41;101098.72;;;21.73;84.96
78014;BME280;67222;50.182;8.734;2023-08-21T06:56:06;101104.44;;;21.76;84.48
78014;BME280;67222;50.182;8.734;2023-08-21T06:58:32;101105.28;;;21.77;85.00
78014;BME280;67222;50.182;8.734;2023-08-21T07:00:57;101099.03;;;21.76;84.52
78014;BME280;67222;50.182;8.734;2023-08-21T07:03:23;101109.91;;;21.82;83.48
78014;BME280;67222;50.182;8.734;2023-08-21T07:05:55;101105.84;;;21.84;83.97
78014;BME280;67222;50.182;8.734;2023-08-21T07:08:21;101111.00;;;21.86;83.74
78014;BME280;67222;50.182;8.734;2023-08-21T07:10:47;101099.34;;;21.90;84.34
78014;BME280;67222;50.182;8.734;2023-08-21T07:13:12;101103.72;;;21.91;83.76
78014;BME280;67222;50.182;8.734;2023-08-21T07:15:37;101105.06;;;21.94;84.31
78014;BME280;67222;50.182;8.734;2023-08-21T07:18:03;101096.16;;;21.98;84.15
78014;BME280;67222;50.182;8.734;2023-08-21T07:20:28;101102.97;;;22.01;84.11
78014;BME280;67222;50.182;8.734;2023-08-21T07:22:53;101106.22;;;22.03;84.00
78014;BME280;67222;50.182;8.734;2023-08-21T07:25:19;101092.41;;;22.04;84.16
78014;BME280;67222;50.182;8.734;2023-08-21T07:27:44;101094.88;;;22.06;83.54
78014;BME280;67222;50.182;8.734;2023-08-21T07:30:10;101098.19;;;22.13;84.04
78014;BME280;67222;50.182;8.734;2023-08-21T07:32:36;101098.47;;;22.17;84.20
78014;BME280;67222;50.182;8.734;2023-08-21T07:35:01;101097.66;;;22.21;84.63
78014;BME280;67222;50.182;8.734;2023-08-21T07:37:26;101097.94;;;22.20;83.98
78014;BME280;67222;50.182;8.734;2023-08-21T07:39:52;101096.06;;;22.25;83.65
78014;BME280;67222;50.182;8.734;2023-08-21T07:42:18;101090.09;;;22.28;82.47
78014;BME280;67222;50.182;8.734;2023-08-21T07:44:44;101090.41;;;22.42;83.46
78014;BME280;67222;50.182;8.734;2023-08-21T07:47:10;101088.25;;;22.49;83.21
78014;BME280;67222;50.182;8.734;2023-08-21T07:49:35;101095.34;;;22.50;80.60
78014;BME280;67222;50.182;8.734;2023-08-21T07:52:02;101089.94;;;22.60;81.52
78014;BME280;67222;50.182;8.734;2023-08-21T07:54:28;101092.66;;;22.65;81.88
78014;BME280;67222;50.182;8.734;2023-08-21T07:56:53;101087.78;;;22.67;82.65
78014;BME280;67222;50.182;8.734;2023-08-21T07:59:18;101088.59;;;22.68;81.41
78014;BME280;67222;50.182;8.734;2023-08-21T08:01:45;101089.16;;;22.70;80.80
78014;BME280;67222;50.182;8.734;2023-08-21T08:04:10;101085.94;;;22.83;81.48
78014;BME280;67222;50.182;8.734;2023-08-21T08:06:36;101087.59;;;22.94;80.72
78014;BME280;67222;50.182;8.734;2023-08-21T08:09:02;101084.34;;;23.03;81.56
78014;BME280;67222;50.182;8.734;2023-08-21T08:11:28;101089.25;;;23.16;81.20
78014;BME280;67222;50.182;8.734;2023-08-21T08:13:55;101084.66;;;23.26;81.73
78014;BME280;67222;50.182;8.734;2023-08-21T08:16:20;101095.78;;;23.30;82.02
78014;BME280;67222;50.182;8.734;2023-08-21T08:18:46;101091.97;;;23.31;81.83
78014;BME280;67222;50.182;8.734;2023-08-21T08:21:11;101083.81;;;23.31;81.29
78014;BME280;67222;50.182;8.734;2023-08-21T08:23:37;101083.28;;;23.29;80.42
78014;BME280;67222;50.182;8.734;2023-08-21T08:26:02;101084.63;;;23.37;80.06
78014;BME280;67222;50.182;8.734;2023-08-21T08:28:27;101083.53;;;23.48;79.79
78014;BME280;67222;50.182;8.734;2023-08-21T08:30:53;101083.53;;;23.58;79.79
78014;BME280;67222;50.182;8.734;2023-08-21T08:33:18;101084.66;;;23.62;80.37
78014;BME280;67222;50.182;8.734;2023-08-21T08:35:44;101087.91;;;23.64;80.48
78014;BME280;67222;50.182;8.734;2023-08-21T08:38:09;101093.38;;;23.64;80.35
78014;BME280;67222;50.182;8.734;2023-08-21T08:40:38;101083.28;;;23.65;80.80
78014;BME280;67222;50.182;8.734;2023-08-21T08:43:07;101082.44;;;23.69;80.96
78014;BME280;67222;50.182;8.734;2023-08-21T08:45:33;101080.28;;;23.71;80.97
78014;BME280;67222;50.182;8.734;2023-08-21T08:47:59;101081.88;;;23.77;79.97
78014;BME280;67222;50.182;8.734;2023-08-21T08:50:28;101072.63;;;23.83;79.89
78014;BME280;67222;50.182;8.734;2023-08-21T08:52:54;101076.16;;;23.89;79.33
78014;BME280;67222;50.182;8.734;2023-08-21T08:55:20;101075.06;;;23.90;79.89
78014;BME280;67222;50.182;8.734;2023-08-21T08:57:46;101070.13;;;23.97;80.36
78014;BME280;67222;50.182;8.734;2023-08-21T09:00:11;101077.19;;;24.03;79.30
78014;BME280;67222;50.182;8.734;2023-08-21T09:02:37;101071.16;;;24.11;79.37
78014;BME280;67222;50.182;8.734;2023-08-21T09:05:02;101064.06;;;24.21;78.27
78014;BME280;67222;50.182;8.734;2023-08-21T09:07:29;101068.09;;;24.33;76.71
78014;BME280;67222;50.182;8.734;2023-08-21T09:09:55;101069.94;;;24.48;77.67
78014;BME280;67222;50.182;8.734;2023-08-21T09:12:21;101074.53;;;24.58;77.79
78014;BME280;67222;50.182;8.734;2023-08-21T09:14:47;101077.22;;;24.63;77.58
78014;BME280;67222;50.182;8.734;2023-08-21T09:17:13;101062.69;;;24.72;74.76
78014;BME280;67222;50.182;8.734;2023-08-21T09:19:39;101064.81;;;24.86;75.24
78014;BME280;67222;50.182;8.734;2023-08-21T09:22:09;101068.56;;;25.00;76.50
78014;BME280;67222;50.182;8.734;2023-08-21T09:24:35;101063.06;;;25.05;75.12
78014;BME280;67222;50.182;8.734;2023-08-21T09:27:00;101064.38;;;25.13;75.06
78014;BME280;67222;50.182;8.734;2023-08-21T09:29:26;101063.56;;;25.12;73.94
78014;BME280;67222;50.182;8.734;2023-08-21T09:31:55;101056.91;;;25.23;72.26
78014;BME280;67222;50.182;8.734;2023-08-21T09:34:21;101059.84;;;25.32;73.27
78014;BME280;67222;50.182;8.734;2023-08-21T09:36:53;101062.69;;;25.51;72.78
78014;BME280;67222;50.182;8.734;2023-08-21T09:39:19;101062.63;;;25.56;71.20
78014;BME280;67222;50.182;8.734;2023-08-21T09:41:55;101055.13;;;25.72;70.78
78014;BME280;67222;50.182;8.734;2023-08-21T09:44:21;101056.34;;;25.84;69.00
78014;BME280;67222;50.182;8.734;2023-08-21T09:46:48;101051.56;;;25.95;71.18
78014;BME280;67222;50.182;8.734;2023-08-21T09:49:14;101047.97;;;26.00;69.90
78014;BME280;67222;50.182;8.734;2023-08-21T09:51:40;101042.31;;;26.15;68.48
78014;BME280;67222;50.182;8.734;2023-08-21T09:54:05;101045.97;;;26.29;70.16
78014;BME280;67222;50.182;8.734;2023-08-21T09:56:31;101049.13;;;26.41;68.64
78014;BME280;67222;50.182;8.734;2023-08-21T09:58:57;101045.94;;;26.53;68.59
78014;BME280;67222;50.182;8.734;2023-08-21T10:01:22;101038.63;;;26.67;69.35
78014;BME280;67222;50.182;8.734;2023-08-21T10:03:49;101041.72;;;26.79;68.62
78014;BME280;67222;50.182;8.734;2023-08-21T10:06:16;101034.66;;;26.92;68.94
78014;BME280;67222;50.182;8.734;2023-08-21T10:08:45;101042.16;;;27.05;67.99
78014;BME280;67222;50.182;8.734;2023-08-21T10:11:11;101032.97;;;27.15;67.25
78014;BME280;67222;50.182;8.734;2023-08-21T10:13:38;101037.66;;;27.28;67.04
78014;BME280;67222;50.182;8.734;2023-08-21T10:16:07;101037.78;;;27.37;65.26
78014;BME280;67222;50.182;8.734;2023-08-21T10:18:34;101040.84;;;27.49;64.94
78014;BME280;67222;50.182;8.734;2023-08-21T10:21:17;101036.50;;;27.62;63.82
78014;BME280;67222;50.182;8.734;2023-08-21T10:23:47;101036.75;;;27.65;60.81
78014;BME280;67222;50.182;8.734;2023-08-21T10:26:13;101029.75;;;27.73;63.70
78014;BME280;67222;50.182;8.734;2023-08-21T10:28:52;101028.72;;;27.83;62.51
78014;BME280;67222;50.182;8.734;2023-08-21T10:33:50;101035.41;;;28.04;57.85
78014;BME280;67222;50.182;8.734;2023-08-21T10:39:04;101030.66;;;28.10;55.91
78014;BME280;67222;50.182;8.734;2023-08-21T10:41:30;101025.94;;;28.24;57.01
78014;BME280;67222;50.182;8.734;2023-08-21T10:43:55;101026.56;;;28.34;59.39
78014;BME280;67222;50.182;8.734;2023-08-21T10:46:20;101020.66;;;28.41;56.92
78014;BME280;67222;50.182;8.734;2023-08-21T10:48:46;101021.25;;;28.52;56.59
78014;BME280;67222;50.182;8.734;2023-08-21T10:51:11;101023.88;;;28.57;52.91
78014;BME280;67222;50.182;8.734;2023-08-21T10:53:38;101013.16;;;28.69;54.08
78014;BME280;67222;50.182;8.734;2023-08-21T10:56:05;101014.47;;;28.72;53.69
78014;BME280;67222;50.182;8.734;2023-08-21T10:58:50;101012.22;;;28.87;54.92
78014;BME280;67222;50.182;8.734;2023-08-21T11:01:16;101008.69;;;28.95;56.04
78014;BME280;67222;50.182;8.734;2023-08-21T11:03:46;101009.25;;;29.06;55.75
78014;BME280;67222;50.182;8.734;2023-08-21T11:06:11;101004.81;;;28.97;55.10
78014;BME280;67222;50.182;8.734;2023-08-21T11:08:36;101004.94;;;29.14;53.93
78014;BME280;67222;50.182;8.734;2023-08-21T11:11:04;101000.66;;;29.30;58.07
78014;BME280;67222;50.182;8.734;2023-08-21T11:13:30;101009.50;;;29.49;53.78
78014;BME280;67222;50.182;8.734;2023-08-21T11:16:00;100998.91;;;29.57;51.42
78014;BME280;67222;50.182;8.734;2023-08-21T11:18:36;101001.84;;;29.69;53.58
78014;BME280;67222;50.182;8.734;2023-08-21T11:21:07;100998.31;;;29.77;53.24
78014;BME280;67222;50.182;8.734;2023-08-21T11:23:34;101007.06;;;29.88;52.46
78014;BME280;67222;50.182;8.734;2023-08-21T11:26:00;101003.22;;;29.97;52.71
78014;BME280;67222;50.182;8.734;2023-08-21T11:28:28;100996.94;;;30.05;53.67
78014;BME280;67222;50.182;8.734;2023-08-21T11:30:55;100997.78;;;30.14;52.48
78014;BME280;67222;50.182;8.734;2023-08-21T11:33:20;100994.09;;;30.36;49.38
78014;BME280;67222;50.182;8.734;2023-08-21T11:35:46;100996.66;;;30.41;53.70
78014;BME280;67222;50.182;8.734;2023-08-21T11:38:19;100987.63;;;30.67;52.06
78014;BME280;67222;50.182;8.734;2023-08-21T11:40:58;100983.53;;;30.99;53.04
78014;BME280;67222;50.182;8.734;2023-08-21T11:44:01;100987.06;;;31.25;51.43
78014;BME280;67222;50.182;8.734;2023-08-21T11:46:26;100990.41;;;31.40;53.07
78014;BME280;67222;50.182;8.734;2023-08-21T11:48:52;100986.16;;;31.42;47.91
78014;BME280;67222;50.182;8.734;2023-08-21T11:51:17;100986.63;;;31.53;50.50
78014;BME280;67222;50.182;8.734;2023-08-21T11:53:43;100985.22;;;31.76;51.62
78014;BME280;67222;50.182;8.734;2023-08-21T11:56:13;100980.44;;;31.94;53.25
78014;BME280;67222;50.182;8.734;2023-08-21T11:58:40;100973.84;;;32.07;49.81
78014;BME280;67222;50.182;8.734;2023-08-21T12:01:05;100969.19;;;32.29;50.27
78014;BME280;67222;50.182;8.734;2023-08-21T12:03:38;100971.78;;;32.46;47.99
78014;BME280;67222;50.182;8.734;2023-08-21T12:06:09;100972.06;;;32.53;48.49
78014;BME280;67222;50.182;8.734;2023-08-21T12:08:34;100972.34;;;32.72;49.71
78014;BME280;67222;50.182;8.734;2023-08-21T12:11:00;100979.22;;;32.87;48.48
78014;BME280;67222;50.182;8.734;2023-08-21T12:13:25;100968.22;;;32.99;43.93
78014;BME280;67222;50.182;8.734;2023-08-21T12:15:50;100970.63;;;33.34;44.47
78014;BME280;67222;50.182;8.734;2023-08-21T12:18:15;100967.06;;;33.58;44.95
78014;BME280;67222;50.182;8.734;2023-08-21T12:20:41;100970.59;;;33.46;42.91
78014;BME280;67222;50.182;8.734;2023-08-21T12:23:06;100969.81;;;33.46;42.91
78014;BME280;67222;50.182;8.734;2023-08-21T12:25:31;100955.41;;;33.77;43.30
78014;BME280;67222;50.182;8.734;2023-08-21T12:27:57;100962.44;;;33.74;45.63
78014;BME280;67222;50.182;8.734;2023-08-21T12:30:22;100963.38;;;33.54;41.22
78014;BME280;67222;50.182;8.734;2023-08-21T12:32:47;100963.00;;;33.43;41.13
78014;BME280;67222;50.182;8.734;2023-08-21T12:35:13;100960.09;;;33.15;41.58
78014;BME280;67222;50.182;8.734;2023-08-21T12:37:38;100959.75;;;33.17;44.35
78014;BME280;67222;50.182;8.734;2023-08-21T12:40:04;100964.91;;;33.18;42.88
78014;BME280;67222;50.182;8.734;2023-08-21T12:42:29;100952.13;;;33.26;41.82
78014;BME280;67222;50.182;8.734;2023-08-21T12:44:55;100952.94;;;33.26;43.22
78014;BME280;67222;50.182;8.734;2023-08-21T12:47:20;100946.53;;;33.71;41.87
78014;BME280;67222;50.182;8.734;2023-08-21T12:49:45;100948.47;;;33.83;39.59
78014;BME280;67222;50.182;8.734;2023-08-21T12:52:10;100948.03;;;33.44;40.63
78014;BME280;67222;50.182;8.734;2023-08-21T12:54:38;100935.97;;;33.03;40.84
78014;BME280;67222;50.182;8.734;2023-08-21T12:57:03;100940.34;;;33.50;48.22
78014;BME280;67222;50.182;8.734;2023-08-21T12:59:28;100936.31;;;34.52;48.37
78014;BME280;67222;50.182;8.734;2023-08-21T13:01:54;100935.56;;;34.67;47.30
78014;BME280;67222;50.182;8.734;2023-08-21T13:04:19;100937.88;;;34.37;46.43
78014;BME280;67222;50.182;8.734;2023-08-21T13:06:44;100935.69;;;33.78;48.26
78014;BME280;67222;50.182;8.734;2023-08-21T13:09:10;100929.16;;;33.34;49.29
78014;BME280;67222;50.182;8.734;2023-08-21T13:11:35;100931.25;;;32.71;50.96
78014;BME280;67222;50.182;8.734;2023-08-21T13:14:00;100930.59;;;32.20;53.39
78014;BME280;67222;50.182;8.734;2023-08-21T13:16:25;100937.50;;;31.84;53.74
78014;BME280;67222;50.182;8.734;2023-08-21T13:18:51;100933.56;;;31.56;55.87
78014;BME280;67222;50.182;8.734;2023-08-21T13:21:16;100936.47;;;31.30;53.92
78014;BME280;67222;50.182;8.734;2023-08-21T13:23:41;100934.06;;;31.20;56.48
78014;BME280;67222;50.182;8.734;2023-08-21T13:26:06;100933.09;;;31.24;57.14
78014;BME280;67222;50.182;8.734;2023-08-21T13:28:32;100933.53;;;32.15;53.97
78014;BME280;67222;50.182;8.734;2023-08-21T13:30:59;100930.84;;;33.75;41.47
78014;BME280;67222;50.182;8.734;2023-08-21T13:33:24;100911.31;;;35.55;36.81
78014;BME280;67222;50.182;8.734;2023-08-21T13:35:50;100901.72;;;37.07;38.61
78014;BME280;67222;50.182;8.734;2023-08-21T13:38:16;100907.66;;;37.28;35.98
78014;BME280;67222;50.182;8.734;2023-08-21T13:40:41;100906.63;;;36.72;33.35
78014;BME280;67222;50.182;8.734;2023-08-21T13:43:07;100914.75;;;37.52;35.35
78014;BME280;67222;50.182;8.734;2023-08-21T13:45:35;100906.41;;;38.39;32.76
78014;BME280;67222;50.182;8.734;2023-08-21T13:48:00;100899.47;;;39.03;36.17
78014;BME280;67222;50.182;8.734;2023-08-21T13:50:25;100896.03;;;38.73;34.12
78014;BME280;67222;50.182;8.734;2023-08-21T13:52:50;100891.88;;;38.23;32.35
78014;BME280;67222;50.182;8.734;2023-08-21T13:55:16;100889.69;;;38.76;30.71
78014;BME280;67222;50.182;8.734;2023-08-21T13:57:41;100889.88;;;38.57;30.53
78014;BME280;67222;50.182;8.734;2023-08-21T14:00:08;100905.34;;;38.17;35.90
78014;BME280;67222;50.182;8.734;2023-08-21T14:02:37;100887.63;;;37.19;32.79
78014;BME280;67222;50.182;8.734;2023-08-21T14:05:03;100890.75;;;37.18;33.81
78014;BME280;67222;50.182;8.734;2023-08-21T14:07:30;100883.28;;;38.05;37.50
78014;BME280;67222;50.182;8.734;2023-08-21T14:09:55;100882.31;;;37.90;32.37
78014;BME280;67222;50.182;8.734;2023-08-21T14:12:21;100876.19;;;38.44;34.71
78014;BME280;67222;50.182;8.734;2023-08-21T14:14:46;100873.66;;;36.93;32.43
78014;BME280;67222;50.182;8.734;2023-08-21T14:17:11;100875.34;;;38.07;36.00
78014;BME280;67222;50.182;8.734;2023-08-21T14:19:36;100866.03;;;36.86;35.93
78014;BME280;67222;50.182;8.734;2023-08-21T14:22:02;100874.59;;;36.16;37.19
78014;BME280;67222;50.182;8.734;2023-08-21T14:24:28;100871.72;;;36.51;34.90
78014;BME280;67222;50.182;8.734;2023-08-21T14:26:53;100859.91;;;35.96;34.89
78014;BME280;67222;50.182;8.734;2023-08-21T14:29:18;100861.94;;;36.19;35.17
78014;BME280;67222;50.182;8.734;2023-08-21T14:31:44;100865.44;;;35.96;34.28
78014;BME280;67222;50.182;8.734;2023-08-21T14:34:12;100861.78;;;36.50;39.52
78014;BME280;67222;50.182;8.734;2023-08-21T14:36:37;100856.53;;;36.06;35.96
78014;BME280;67222;50.182;8.734;2023-08-21T14:39:02;100849.16;;;36.33;37.56
78014;BME280;67222;50.182;8.734;2023-08-21T14:41:29;100855.94;;;36.36;34.66
78014;BME280;67222;50.182;8.734;2023-08-21T14:43:54;100855.28;;;36.43;34.60
78014;BME280;67222;50.182;8.734;2023-08-21T14:46:19;100856.81;;;36.40;33.89
78014;BME280;67222;50.182;8.734;2023-08-21T14:48:44;100849.59;;;36.35;36.05
78014;BME280;67222;50.182;8.734;2023-08-21T14:51:10;100845.75;;;36.24;32.92
78014;BME280;67222;50.182;8.734;2023-08-21T14:53:35;100849.31;;;36.02;34.74
78014;BME280;67222;50.182;8.734;2023-08-21T14:56:00;100847.44;;;35.71;35.72
78014;BME280;67222;50.182;8.734;2023-08-21T14:58:25;100847.13;;;35.57;36.57
78014;BME280;67222;50.182;8.734;2023-08-21T15:00:54;100839.94;;;35.36;34.71
78014;BME280;67222;50.182;8.734;2023-08-21T15:03:19;100838.06;;;34.93;35.57
78014;BME280;67222;50.182;8.734;2023-08-21T15:05:45;100835.88;;;34.39;35.93
78014;BME280;67222;50.182;8.734;2023-08-21T15:08:10;100834.31;;;33.98;36.43
78014;BME280;67222;50.182;8.734;2023-08-21T15:10:35;100836.22;;;33.69;38.03
78014;BME280;67222;50.182;8.734;2023-08-21T15:13:01;100837.56;;;33.48;40.92
78014;BME280;67222;50.182;8.734;2023-08-21T15:15:26;100831.22;;;33.35;43.82
78014;BME280;67222;50.182;8.734;2023-08-21T15:17:51;100835.81;;;33.19;47.40
78014;BME280;67222;50.182;8.734;2023-08-21T15:20:17;100827.88;;;32.93;46.36
78014;BME280;67222;50.182;8.734;2023-08-21T15:22:42;100829.31;;;32.66;41.95
78014;BME280;67222;50.182;8.734;2023-08-21T15:25:08;100819.72;;;32.39;43.94
78014;BME280;67222;50.182;8.734;2023-08-21T15:27:34;100823.22;;;32.27;44.37
78014;BME280;67222;50.182;8.734;2023-08-21T15:29:59;100815.56;;;32.12;41.30
78014;BME280;67222;50.182;8.734;2023-08-21T15:32:24;100821.34;;;31.98;45.10
78014;BME280;67222;50.182;8.734;2023-08-21T15:34:49;100833.22;;;31.78;45.71
78014;BME280;67222;50.182;8.734;2023-08-21T15:37:15;100819.41;;;31.78;44.82
78014;BME280;67222;50.182;8.734;2023-08-21T15:39:40;100822.22;;;31.69;42.98
78014;BME280;67222;50.182;8.734;2023-08-21T15:42:05;100820.28;;;31.70;44.93
78014;BME280;67222;50.182;8.734;2023-08-21T15:44:31;100804.53;;;31.70;42.39
78014;BME280;67222;50.182;8.734;2023-08-21T15:46:56;100804.94;;;31.60;45.08
78014;BME280;67222;50.182;8.734;2023-08-21T15:49:21;100808.91;;;31.50;46.33
78014;BME280;67222;50.182;8.734;2023-08-21T15:51:47;100799.41;;;31.39;43.87
78014;BME280;67222;50.182;8.734;2023-08-21T15:54:17;100800.75;;;31.33;43.77
78014;BME280;67222;50.182;8.734;2023-08-21T15:56:43;100799.38;;;31.18;44.66
78014;BME280;67222;50.182;8.734;2023-08-21T15:59:08;100804.78;;;31.06;43.27
78014;BME280;67222;50.182;8.734;2023-08-21T16:01:34;100799.28;;;31.06;42.42
78014;BME280;67222;50.182;8.734;2023-08-21T16:03:59;100802.25;;;30.92;43.51
78014;BME280;67222;50.182;8.734;2023-08-21T16:06:24;100790.94;;;30.85;42.08
78014;BME280;67222;50.182;8.734;2023-08-21T16:08:50;100795.16;;;30.83;43.82
78014;BME280;67222;50.182;8.734;2023-08-21T16:11:15;100787.63;;;30.71;44.16
78014;BME280;67222;50.182;8.734;2023-08-21T16:13:40;100781.78;;;30.72;43.35
78014;BME280;67222;50.182;8.734;2023-08-21T16:16:05;100782.25;;;30.66;45.95
78014;BME280;67222;50.182;8.734;2023-08-21T16:18:31;100782.25;;;30.66;44.02
78014;BME280;67222;50.182;8.734;2023-08-21T16:20:57;100784.41;;;30.52;46.04
78014;BME280;67222;50.182;8.734;2023-08-21T16:23:22;100775.03;;;30.44;49.30
78014;BME280;67222;50.182;8.734;2023-08-21T16:25:47;100774.59;;;30.33;45.85
78014;BME280;67222;50.182;8.734;2023-08-21T16:28:13;100777.03;;;30.35;46.10
78014;BME280;67222;50.182;8.734;2023-08-21T16:30:38;100765.03;;;30.39;44.94
78014;BME280;67222;50.182;8.734;2023-08-21T16:33:04;100772.81;;;30.29;44.47
78014;BME280;67222;50.182;8.734;2023-08-21T16:35:29;100772.03;;;30.20;45.74
78014;BME280;67222;50.182;8.734;2023-08-21T16:37:55;100779.00;;;30.17;48.94
78014;BME280;67222;50.182;8.734;2023-08-21T16:40:20;100773.16;;;30.01;45.98
78014;BME280;67222;50.182;8.734;2023-08-21T16:42:48;100771.56;;;30.09;46.51
78014;BME280;67222;50.182;8.734;2023-08-21T16:45:14;100764.91;;;29.93;45.77
78014;BME280;67222;50.182;8.734;2023-08-21T16:47:41;100768.50;;;29.84;45.80
78014;BME280;67222;50.182;8.734;2023-08-21T16:50:06;100766.56;;;29.76;47.86
78014;BME280;67222;50.182;8.734;2023-08-21T16:52:32;100762.84;;;29.64;50.40
78014;BME280;67222;50.182;8.734;2023-08-21T16:54:57;100765.56;;;29.55;50.41
78014;BME280;67222;50.182;8.734;2023-08-21T16:57:23;100753.94;;;29.49;53.21
78014;BME280;67222;50.182;8.734;2023-08-21T16:59:48;100752.44;;;29.35;55.12
78014;BME280;67222;50.182;8.734;2023-08-21T17:02:13;100767.63;;;29.23;56.06
78014;BME280;67222;50.182;8.734;2023-08-21T17:04:39;100763.06;;;29.10;51.96
78014;BME280;67222;50.182;8.734;2023-08-21T17:07:05;100757.53;;;28.93;50.24
78014;BME280;67222;50.182;8.734;2023-08-21T17:09:30;100769.97;;;28.90;52.26
78014;BME280;67222;50.182;8.734;2023-08-21T17:11:55;100762.38;;;28.96;48.63
78014;BME280;67222;50.182;8.734;2023-08-21T17:14:21;100767.84;;;28.87;55.07
78014;BME280;67222;50.182;8.734;2023-08-21T17:16:46;100768.09;;;28.77;57.90
78014;BME280;67222;50.182;8.734;2023-08-21T17:19:12;100768.25;;;28.72;56.84